sensor_id;sensor_type;location;lat;lon;timestamp;P1;durP1;ratioP1;P2;durP2;ratioP2
16159;SDS011;8185;57.818;15.224;2023-07-31T00:00:16;2.00;;;1.20;;
16159;SDS011;8185;57.818;15.224;2023-07-31T00:02:43;3.67;;;1.83;;
16159;SDS011;8185;57.818;15.224;2023-07-31T00:05:11;3.10;;;1.80;;
16159;SDS011;8185;57.818;15.224;2023-07-31T00:07:38;5.57;;;1.80;;
16159;SDS011;8185;57.818;15.224;2023-07-31T00:10:07;2.70;;;1.80;;
16159;SDS011;8185;57.818;15.224;2023-07-31T00:12:34;4.83;;;2.20;;
16159;SDS011;8185;57.818;15.224;2023-07-31T00:15:02;5.87;;;2.20;;
16159;SDS011;8185;57.818;15.224;2023-07-31T00:17:29;6.13;;;2.03;;
16159;SDS011;8185;57.818;15.224;2023-07-31T00:19:57;3.20;;;1.87;;
16159;SDS011;8185;57.818;15.224;2023-07-31T00:22:24;2.40;;;1.73;;
16159;SDS011;8185;57.818;15.224;2023-07-31T00:24:51;3.93;;;2.10;;
16159;SDS011;8185;57.818;15.224;2023-07-31T00:27:20;3.30;;;1.77;;
16159;SDS011;8185;57.818;15.224;2023-07-31T00:29:47;4.73;;;1.93;;
16159;SDS011;8185;57.818;15.224;2023-07-31T00:32:14;3.73;;;1.83;;
16159;SDS011;8185;57.818;15.224;2023-07-31T00:34:41;2.97;;;1.70;;
16159;SDS011;8185;57.818;15.224;2023-07-31T00:37:08;4.93;;;2.57;;
16159;SDS011;8185;57.818;15.224;2023-07-31T00:39:35;4.03;;;2.20;;
16159;SDS011;8185;57.818;15.224;2023-07-31T00:42:03;3.17;;;2.20;;
16159;SDS011;8185;57.818;15.224;2023-07-31T00:44:32;2.87;;;1.87;;
16159;SDS011;8185;57.818;15.224;2023-07-31T00:46:59;4.23;;;1.93;;
16159;SDS011;8185;57.818;15.224;2023-07-31T00:49:26;4.27;;;1.83;;
16159;SDS011;8185;57.818;15.224;2023-07-31T00:51:54;3.93;;;1.80;;
16159;SDS011;8185;57.818;15.224;2023-07-31T00:54:22;4.33;;;2.17;;
16159;SDS011;8185;57.818;15.224;2023-07-31T00:56:50;3.03;;;1.97;;
16159;SDS011;8185;57.818;15.224;2023-07-31T00:59:19;2.77;;;1.67;;
16159;SDS011;8185;57.818;15.224;2023-07-31T01:01:47;3.23;;;1.47;;
16159;SDS011;8185;57.818;15.224;2023-07-31T01:04:15;3.17;;;1.83;;
16159;SDS011;8185;57.818;15.224;2023-07-31T01:06:44;2.47;;;1.80;;
16159;SDS011;8185;57.818;15.224;2023-07-31T01:09:21;8.63;;;2.43;;
16159;SDS011;8185;57.818;15.224;2023-07-31T01:11:56;4.47;;;2.43;;
16159;SDS011;8185;57.818;15.224;2023-07-31T01:14:26;4.27;;;1.93;;
16159;SDS011;8185;57.818;15.224;2023-07-31T01:16:55;3.27;;;2.13;;
16159;SDS011;8185;57.818;15.224;2023-07-31T01:19:23;5.03;;;2.10;;
16159;SDS011;8185;57.818;15.224;2023-07-31T01:21:58;2.63;;;1.83;;
16159;SDS011;8185;57.818;15.224;2023-07-31T01:24:54;4.63;;;1.77;;
16159;SDS011;8185;57.818;15.224;2023-07-31T01:27:28;3.70;;;2.10;;
16159;SDS011;8185;57.818;15.224;2023-07-31T01:30:03;3.53;;;1.80;;
16159;SDS011;8185;57.818;15.224;2023-07-31T01:32:36;5.40;;;1.87;;
16159;SDS011;8185;57.818;15.224;2023-07-31T01:35:06;2.70;;;1.50;;
16159;SDS011;8185;57.818;15.224;2023-07-31T01:37:34;7.50;;;1.50;;
16159;SDS011;8185;57.818;15.224;2023-07-31T01:40:01;5.73;;;1.97;;
16159;SDS011;8185;57.818;15.224;2023-07-31T01:42:30;2.53;;;1.60;;
16159;SDS011;8185;57.818;15.224;2023-07-31T01:44:57;2.87;;;1.50;;
16159;SDS011;8185;57.818;15.224;2023-07-31T01:47:24;4.40;;;1.70;;
16159;SDS011;8185;57.818;15.224;2023-07-31T01:49:51;2.03;;;1.83;;
16159;SDS011;8185;57.818;15.224;2023-07-31T01:52:19;4.33;;;1.73;;
16159;SDS011;8185;57.818;15.224;2023-07-31T01:54:46;1.57;;;1.40;;
16159;SDS011;8185;57.818;15.224;2023-07-31T01:57:13;2.17;;;1.67;;
16159;SDS011;8185;57.818;15.224;2023-07-31T01:59:42;3.07;;;1.60;;
16159;SDS011;8185;57.818;15.224;2023-07-31T02:02:09;2.03;;;1.77;;
16159;SDS011;8185;57.818;15.224;2023-07-31T02:04:37;2.80;;;1.60;;
16159;SDS011;8185;57.818;15.224;2023-07-31T02:07:05;3.43;;;1.87;;
16159;SDS011;8185;57.818;15.224;2023-07-31T02:09:32;3.13;;;1.67;;
16159;SDS011;8185;57.818;15.224;2023-07-31T02:11:59;4.70;;;1.40;;
16159;SDS011;8185;57.818;15.224;2023-07-31T02:14:26;2.80;;;1.40;;
16159;SDS011;8185;57.818;15.224;2023-07-31T02:16:55;3.33;;;1.70;;
16159;SDS011;8185;57.818;15.224;2023-07-31T02:19:22;3.43;;;1.63;;
16159;SDS011;8185;57.818;15.224;2023-07-31T02:21:49;4.53;;;2.10;;
16159;SDS011;8185;57.818;15.224;2023-07-31T02:24:16;1.60;;;1.47;;
16159;SDS011;8185;57.818;15.224;2023-07-31T02:26:43;4.47;;;1.53;;
16159;SDS011;8185;57.818;15.224;2023-07-31T02:29:10;2.97;;;1.60;;
16159;SDS011;8185;57.818;15.224;2023-07-31T02:31:37;2.47;;;1.60;;
16159;SDS011;8185;57.818;15.224;2023-07-31T02:34:06;2.07;;;1.63;;
16159;SDS011;8185;57.818;15.224;2023-07-31T02:36:33;3.30;;;1.63;;
16159;SDS011;8185;57.818;15.224;2023-07-31T02:39:00;2.73;;;1.67;;
16159;SDS011;8185;57.818;15.224;2023-07-31T02:41:28;2.67;;;1.60;;
16159;SDS011;8185;57.818;15.224;2023-07-31T02:43:55;1.97;;;1.70;;
16159;SDS011;8185;57.818;15.224;2023-07-31T02:46:22;2.47;;;1.53;;
16159;SDS011;8185;57.818;15.224;2023-07-31T02:48:50;2.33;;;1.50;;
16159;SDS011;8185;57.818;15.224;2023-07-31T02:51:18;3.03;;;1.80;;
16159;SDS011;8185;57.818;15.224;2023-07-31T02:53:46;2.30;;;1.77;;
16159;SDS011;8185;57.818;15.224;2023-07-31T02:56:14;4.00;;;1.63;;
16159;SDS011;8185;57.818;15.224;2023-07-31T02:58:42;1.97;;;1.27;;
16159;SDS011;8185;57.818;15.224;2023-07-31T03:01:09;4.70;;;1.70;;
16159;SDS011;8185;57.818;15.224;2023-07-31T03:03:36;4.27;;;1.70;;
16159;SDS011;8185;57.818;15.224;2023-07-31T03:06:03;3.40;;;1.70;;
16159;SDS011;8185;57.818;15.224;2023-07-31T03:08:31;4.83;;;1.83;;
16159;SDS011;8185;57.818;15.224;2023-07-31T03:10:59;3.23;;;1.50;;
16159;SDS011;8185;57.818;15.224;2023-07-31T03:13:26;2.70;;;1.50;;
16159;SDS011;8185;57.818;15.224;2023-07-31T03:15:53;1.90;;;1.70;;
16159;SDS011;8185;57.818;15.224;2023-07-31T03:18:20;2.57;;;1.67;;
16159;SDS011;8185;57.818;15.224;2023-07-31T03:20:47;6.00;;;1.93;;
16159;SDS011;8185;57.818;15.224;2023-07-31T03:23:14;2.43;;;1.60;;
16159;SDS011;8185;57.818;15.224;2023-07-31T03:25:52;1.83;;;1.30;;
16159;SDS011;8185;57.818;15.224;2023-07-31T03:28:22;5.77;;;1.80;;
16159;SDS011;8185;57.818;15.224;2023-07-31T03:30:49;2.50;;;2.00;;
16159;SDS011;8185;57.818;15.224;2023-07-31T03:33:17;2.07;;;1.80;;
16159;SDS011;8185;57.818;15.224;2023-07-31T03:35:44;1.80;;;1.70;;
16159;SDS011;8185;57.818;15.224;2023-07-31T03:38:11;3.10;;;1.50;;
16159;SDS011;8185;57.818;15.224;2023-07-31T03:40:39;6.97;;;1.80;;
16159;SDS011;8185;57.818;15.224;2023-07-31T03:43:07;7.17;;;1.87;;
16159;SDS011;8185;57.818;15.224;2023-07-31T03:45:34;4.20;;;1.60;;
16159;SDS011;8185;57.818;15.224;2023-07-31T03:48:02;4.10;;;1.83;;
16159;SDS011;8185;57.818;15.224;2023-07-31T03:50:30;3.10;;;1.90;;
16159;SDS011;8185;57.818;15.224;2023-07-31T03:52:57;5.27;;;2.30;;
16159;SDS011;8185;57.818;15.224;2023-07-31T03:55:25;4.27;;;2.30;;
16159;SDS011;8185;57.818;15.224;2023-07-31T03:57:52;1.83;;;1.53;;
16159;SDS011;8185;57.818;15.224;2023-07-31T04:00:21;5.27;;;1.90;;
16159;SDS011;8185;57.818;15.224;2023-07-31T04:02:48;3.03;;;1.67;;
16159;SDS011;8185;57.818;15.224;2023-07-31T04:05:15;3.13;;;1.50;;
16159;SDS011;8185;57.818;15.224;2023-07-31T04:07:42;3.93;;;1.67;;
16159;SDS011;8185;57.818;15.224;2023-07-31T04:10:09;6.33;;;2.17;;
16159;SDS011;8185;57.818;15.224;2023-07-31T04:12:37;4.07;;;1.87;;
16159;SDS011;8185;57.818;15.224;2023-07-31T04:15:04;5.20;;;1.50;;
16159;SDS011;8185;57.818;15.224;2023-07-31T04:17:33;3.70;;;1.90;;
16159;SDS011;8185;57.818;15.224;2023-07-31T04:20:00;3.10;;;1.80;;
16159;SDS011;8185;57.818;15.224;2023-07-31T04:22:28;3.77;;;1.83;;
16159;SDS011;8185;57.818;15.224;2023-07-31T04:24:55;4.30;;;1.60;;
16159;SDS011;8185;57.818;15.224;2023-07-31T04:27:22;4.80;;;1.97;;
16159;SDS011;8185;57.818;15.224;2023-07-31T04:29:49;2.23;;;1.20;;
16159;SDS011;8185;57.818;15.224;2023-07-31T04:32:16;2.57;;;1.60;;
16159;SDS011;8185;57.818;15.224;2023-07-31T04:34:46;3.13;;;1.40;;
16159;SDS011;8185;57.818;15.224;2023-07-31T04:37:14;2.77;;;1.37;;
16159;SDS011;8185;57.818;15.224;2023-07-31T04:39:41;1.60;;;1.50;;
16159;SDS011;8185;57.818;15.224;2023-07-31T04:42:08;4.40;;;1.63;;
16159;SDS011;8185;57.818;15.224;2023-07-31T04:44:35;2.37;;;1.53;;
16159;SDS011;8185;57.818;15.224;2023-07-31T04:47:03;2.37;;;1.50;;
16159;SDS011;8185;57.818;15.224;2023-07-31T04:49:30;3.73;;;1.70;;
16159;SDS011;8185;57.818;15.224;2023-07-31T04:51:59;5.87;;;1.60;;
16159;SDS011;8185;57.818;15.224;2023-07-31T04:54:26;4.00;;;1.67;;
16159;SDS011;8185;57.818;15.224;2023-07-31T04:56:54;2.80;;;1.20;;
16159;SDS011;8185;57.818;15.224;2023-07-31T04:59:21;5.13;;;1.90;;
16159;SDS011;8185;57.818;15.224;2023-07-31T05:01:48;5.20;;;1.40;;
16159;SDS011;8185;57.818;15.224;2023-07-31T05:04:15;5.90;;;1.77;;
16159;SDS011;8185;57.818;15.224;2023-07-31T05:06:43;3.30;;;1.50;;
16159;SDS011;8185;57.818;15.224;2023-07-31T05:09:11;3.33;;;1.40;;
16159;SDS011;8185;57.818;15.224;2023-07-31T05:11:38;3.33;;;1.67;;
16159;SDS011;8185;57.818;15.224;2023-07-31T05:14:08;3.53;;;1.70;;
16159;SDS011;8185;57.818;15.224;2023-07-31T05:16:35;4.17;;;1.47;;
16159;SDS011;8185;57.818;15.224;2023-07-31T05:19:02;6.80;;;2.13;;
16159;SDS011;8185;57.818;15.224;2023-07-31T05:21:29;5.07;;;1.60;;
16159;SDS011;8185;57.818;15.224;2023-07-31T05:23:56;3.20;;;2.00;;
16159;SDS011;8185;57.818;15.224;2023-07-31T05:26:25;2.20;;;1.37;;
16159;SDS011;8185;57.818;15.224;2023-07-31T05:28:52;3.37;;;1.60;;
16159;SDS011;8185;57.818;15.224;2023-07-31T05:31:19;3.90;;;1.37;;
16159;SDS011;8185;57.818;15.224;2023-07-31T05:33:47;4.10;;;1.23;;
16159;SDS011;8185;57.818;15.224;2023-07-31T05:36:16;1.43;;;1.30;;
16159;SDS011;8185;57.818;15.224;2023-07-31T05:38:43;1.80;;;1.10;;
16159;SDS011;8185;57.818;15.224;2023-07-31T05:41:11;3.07;;;1.50;;
16159;SDS011;8185;57.818;15.224;2023-07-31T05:43:39;2.70;;;1.00;;
16159;SDS011;8185;57.818;15.224;2023-07-31T05:46:08;5.77;;;1.20;;
16159;SDS011;8185;57.818;15.224;2023-07-31T05:48:37;1.27;;;0.80;;
16159;SDS011;8185;57.818;15.224;2023-07-31T05:51:04;1.97;;;0.80;;
16159;SDS011;8185;57.818;15.224;2023-07-31T05:53:32;2.13;;;1.10;;
16159;SDS011;8185;57.818;15.224;2023-07-31T05:56:00;2.43;;;1.23;;
16159;SDS011;8185;57.818;15.224;2023-07-31T05:58:27;2.53;;;1.00;;
16159;SDS011;8185;57.818;15.224;2023-07-31T06:00:55;2.70;;;1.10;;
16159;SDS011;8185;57.818;15.224;2023-07-31T06:03:22;3.13;;;1.10;;
16159;SDS011;8185;57.818;15.224;2023-07-31T06:05:49;1.60;;;0.70;;
16159;SDS011;8185;57.818;15.224;2023-07-31T06:08:17;3.07;;;1.00;;
16159;SDS011;8185;57.818;15.224;2023-07-31T06:10:44;4.00;;;1.30;;
16159;SDS011;8185;57.818;15.224;2023-07-31T06:13:11;1.23;;;1.00;;
16159;SDS011;8185;57.818;15.224;2023-07-31T06:15:38;2.23;;;0.83;;
16159;SDS011;8185;57.818;15.224;2023-07-31T06:18:06;3.50;;;1.17;;
16159;SDS011;8185;57.818;15.224;2023-07-31T06:20:34;2.07;;;0.90;;
16159;SDS011;8185;57.818;15.224;2023-07-31T06:23:01;2.37;;;0.97;;
16159;SDS011;8185;57.818;15.224;2023-07-31T06:25:28;1.37;;;0.90;;
16159;SDS011;8185;57.818;15.224;2023-07-31T06:27:56;3.07;;;1.23;;
16159;SDS011;8185;57.818;15.224;2023-07-31T06:30:23;2.97;;;0.90;;
16159;SDS011;8185;57.818;15.224;2023-07-31T06:32:50;2.67;;;1.00;;
16159;SDS011;8185;57.818;15.224;2023-07-31T06:35:19;1.53;;;0.80;;
16159;SDS011;8185;57.818;15.224;2023-07-31T06:37:46;3.40;;;0.90;;
16159;SDS011;8185;57.818;15.224;2023-07-31T06:40:13;1.47;;;0.73;;
16159;SDS011;8185;57.818;15.224;2023-07-31T06:42:40;2.63;;;1.13;;
16159;SDS011;8185;57.818;15.224;2023-07-31T06:45:08;1.20;;;0.90;;
16159;SDS011;8185;57.818;15.224;2023-07-31T06:47:35;3.17;;;0.90;;
16159;SDS011;8185;57.818;15.224;2023-07-31T06:50:03;4.10;;;1.20;;
16159;SDS011;8185;57.818;15.224;2023-07-31T06:52:32;2.73;;;1.00;;
16159;SDS011;8185;57.818;15.224;2023-07-31T06:55:00;2.13;;;1.00;;
16159;SDS011;8185;57.818;15.224;2023-07-31T06:57:29;2.63;;;1.53;;
16159;SDS011;8185;57.818;15.224;2023-07-31T06:59:56;2.97;;;0.80;;
16159;SDS011;8185;57.818;15.224;2023-07-31T07:02:23;4.23;;;0.83;;
16159;SDS011;8185;57.818;15.224;2023-07-31T07:04:50;8.23;;;1.03;;
16159;SDS011;8185;57.818;15.224;2023-07-31T07:07:18;2.93;;;0.80;;
16159;SDS011;8185;57.818;15.224;2023-07-31T07:09:46;2.57;;;0.60;;
16159;SDS011;8185;57.818;15.224;2023-07-31T07:12:13;2.73;;;0.97;;
16159;SDS011;8185;57.818;15.224;2023-07-31T07:14:40;2.63;;;0.90;;
16159;SDS011;8185;57.818;15.224;2023-07-31T07:17:07;3.13;;;0.90;;
16159;SDS011;8185;57.818;15.224;2023-07-31T07:19:35;3.30;;;1.10;;
16159;SDS011;8185;57.818;15.224;2023-07-31T07:22:02;6.97;;;1.00;;
16159;SDS011;8185;57.818;15.224;2023-07-31T07:24:29;3.67;;;0.87;;
16159;SDS011;8185;57.818;15.224;2023-07-31T07:26:58;2.27;;;1.17;;
16159;SDS011;8185;57.818;15.224;2023-07-31T07:29:25;2.47;;;0.90;;
16159;SDS011;8185;57.818;15.224;2023-07-31T07:31:52;1.97;;;0.80;;
16159;SDS011;8185;57.818;15.224;2023-07-31T07:34:19;4.23;;;0.93;;
16159;SDS011;8185;57.818;15.224;2023-07-31T07:36:49;5.13;;;1.27;;
16159;SDS011;8185;57.818;15.224;2023-07-31T07:39:16;3.13;;;1.17;;
16159;SDS011;8185;57.818;15.224;2023-07-31T07:41:43;1.90;;;0.60;;
16159;SDS011;8185;57.818;15.224;2023-07-31T07:44:12;3.27;;;0.93;;
16159;SDS011;8185;57.818;15.224;2023-07-31T07:46:39;4.73;;;1.00;;
16159;SDS011;8185;57.818;15.224;2023-07-31T07:49:07;3.57;;;1.00;;
16159;SDS011;8185;57.818;15.224;2023-07-31T07:51:34;2.57;;;0.77;;
16159;SDS011;8185;57.818;15.224;2023-07-31T07:54:02;2.43;;;0.90;;
16159;SDS011;8185;57.818;15.224;2023-07-31T07:56:29;3.80;;;1.00;;
16159;SDS011;8185;57.818;15.224;2023-07-31T07:58:56;3.53;;;0.90;;
16159;SDS011;8185;57.818;15.224;2023-07-31T08:01:25;4.93;;;1.00;;
16159;SDS011;8185;57.818;15.224;2023-07-31T08:03:52;2.17;;;1.47;;
16159;SDS011;8185;57.818;15.224;2023-07-31T08:06:19;2.60;;;1.20;;
16159;SDS011;8185;57.818;15.224;2023-07-31T08:08:47;3.50;;;0.97;;
16159;SDS011;8185;57.818;15.224;2023-07-31T08:11:15;2.47;;;0.83;;
16159;SDS011;8185;57.818;15.224;2023-07-31T08:13:42;3.57;;;1.00;;
16159;SDS011;8185;57.818;15.224;2023-07-31T08:16:09;2.23;;;0.80;;
16159;SDS011;8185;57.818;15.224;2023-07-31T08:18:38;1.50;;;0.70;;
16159;SDS011;8185;57.818;15.224;2023-07-31T08:21:05;3.40;;;1.17;;
16159;SDS011;8185;57.818;15.224;2023-07-31T08:23:32;3.13;;;1.27;;
16159;SDS011;8185;57.818;15.224;2023-07-31T08:25:59;3.83;;;1.10;;
16159;SDS011;8185;57.818;15.224;2023-07-31T08:28:27;2.73;;;0.93;;
16159;SDS011;8185;57.818;15.224;2023-07-31T08:30:54;2.80;;;0.87;;
16159;SDS011;8185;57.818;15.224;2023-07-31T08:33:21;1.73;;;0.70;;
16159;SDS011;8185;57.818;15.224;2023-07-31T08:35:50;2.13;;;0.90;;
16159;SDS011;8185;57.818;15.224;2023-07-31T08:38:17;4.63;;;0.80;;
16159;SDS011;8185;57.818;15.224;2023-07-31T08:40:44;2.17;;;0.87;;
16159;SDS011;8185;57.818;15.224;2023-07-31T08:43:11;1.37;;;0.87;;
16159;SDS011;8185;57.818;15.224;2023-07-31T08:45:39;2.70;;;1.00;;
16159;SDS011;8185;57.818;15.224;2023-07-31T08:48:08;5.40;;;1.20;;
16159;SDS011;8185;57.818;15.224;2023-07-31T08:50:37;3.23;;;0.87;;
16159;SDS011;8185;57.818;15.224;2023-07-31T08:53:06;2.50;;;0.80;;
16159;SDS011;8185;57.818;15.224;2023-07-31T08:55:33;2.50;;;1.03;;
16159;SDS011;8185;57.818;15.224;2023-07-31T08:58:01;4.83;;;0.90;;
16159;SDS011;8185;57.818;15.224;2023-07-31T09:00:30;3.30;;;1.00;;
16159;SDS011;8185;57.818;15.224;2023-07-31T09:02:59;1.63;;;0.80;;
16159;SDS011;8185;57.818;15.224;2023-07-31T09:05:29;2.03;;;0.70;;
16159;SDS011;8185;57.818;15.224;2023-07-31T09:07:57;2.93;;;0.73;;
16159;SDS011;8185;57.818;15.224;2023-07-31T09:10:28;1.60;;;0.90;;
16159;SDS011;8185;57.818;15.224;2023-07-31T09:12:55;3.03;;;0.90;;
16159;SDS011;8185;57.818;15.224;2023-07-31T09:15:23;1.97;;;0.90;;
16159;SDS011;8185;57.818;15.224;2023-07-31T09:17:58;2.90;;;0.80;;
16159;SDS011;8185;57.818;15.224;2023-07-31T09:20:26;4.07;;;1.00;;
16159;SDS011;8185;57.818;15.224;2023-07-31T09:22:53;2.80;;;1.10;;
16159;SDS011;8185;57.818;15.224;2023-07-31T09:25:22;3.03;;;0.95;;
16159;SDS011;8185;57.818;15.224;2023-07-31T09:27:53;3.67;;;1.10;;
16159;SDS011;8185;57.818;15.224;2023-07-31T09:30:23;3.50;;;1.13;;
16159;SDS011;8185;57.818;15.224;2023-07-31T09:32:51;3.28;;;0.90;;
16159;SDS011;8185;57.818;15.224;2023-07-31T09:35:27;3.92;;;0.98;;
16159;SDS011;8185;57.818;15.224;2023-07-31T09:37:56;3.20;;;0.90;;
16159;SDS011;8185;57.818;15.224;2023-07-31T09:40:25;3.67;;;1.13;;
16159;SDS011;8185;57.818;15.224;2023-07-31T09:42:55;3.67;;;0.90;;
16159;SDS011;8185;57.818;15.224;2023-07-31T09:45:24;2.60;;;0.90;;
16159;SDS011;8185;57.818;15.224;2023-07-31T09:47:51;1.67;;;0.80;;
16159;SDS011;8185;57.818;15.224;2023-07-31T09:50:20;1.17;;;0.70;;
16159;SDS011;8185;57.818;15.224;2023-07-31T09:52:48;1.67;;;0.60;;
16159;SDS011;8185;57.818;15.224;2023-07-31T09:55:15;2.90;;;0.80;;
16159;SDS011;8185;57.818;15.224;2023-07-31T09:57:44;1.80;;;0.73;;
16159;SDS011;8185;57.818;15.224;2023-07-31T10:00:14;2.77;;;0.90;;
16159;SDS011;8185;57.818;15.224;2023-07-31T10:02:44;3.37;;;0.80;;
16159;SDS011;8185;57.818;15.224;2023-07-31T10:05:13;3.37;;;1.00;;
16159;SDS011;8185;57.818;15.224;2023-07-31T10:07:42;2.63;;;0.90;;
16159;SDS011;8185;57.818;15.224;2023-07-31T10:10:21;1.73;;;0.73;;
16159;SDS011;8185;57.818;15.224;2023-07-31T10:12:48;1.17;;;0.60;;
16159;SDS011;8185;57.818;15.224;2023-07-31T10:15:18;0.97;;;0.50;;
16159;SDS011;8185;57.818;15.224;2023-07-31T10:17:47;4.55;;;1.02;;
16159;SDS011;8185;57.818;15.224;2023-07-31T10:20:16;1.33;;;0.50;;
16159;SDS011;8185;57.818;15.224;2023-07-31T10:22:43;2.57;;;0.60;;
16159;SDS011;8185;57.818;15.224;2023-07-31T10:25:12;2.35;;;0.95;;
16159;SDS011;8185;57.818;15.224;2023-07-31T10:27:41;1.88;;;0.57;;
16159;SDS011;8185;57.818;15.224;2023-07-31T10:30:10;1.50;;;0.57;;
16159;SDS011;8185;57.818;15.224;2023-07-31T10:32:41;1.15;;;0.52;;
16159;SDS011;8185;57.818;15.224;2023-07-31T10:35:10;1.77;;;0.68;;
16159;SDS011;8185;57.818;15.224;2023-07-31T10:37:39;1.35;;;0.50;;
16159;SDS011;8185;57.818;15.224;2023-07-31T10:40:10;1.48;;;0.68;;
16159;SDS011;8185;57.818;15.224;2023-07-31T10:42:44;2.75;;;0.65;;
16159;SDS011;8185;57.818;15.224;2023-07-31T10:45:13;1.10;;;0.60;;
16159;SDS011;8185;57.818;15.224;2023-07-31T10:47:51;1.95;;;0.63;;
16159;SDS011;8185;57.818;15.224;2023-07-31T10:50:25;3.08;;;0.70;;
16159;SDS011;8185;57.818;15.224;2023-07-31T10:52:53;1.17;;;0.57;;
16159;SDS011;8185;57.818;15.224;2023-07-31T10:55:24;0.50;;;0.40;;
16159;SDS011;8185;57.818;15.224;2023-07-31T10:57:53;1.17;;;0.47;;
16159;SDS011;8185;57.818;15.224;2023-07-31T11:00:21;1.35;;;0.52;;
16159;SDS011;8185;57.818;15.224;2023-07-31T11:02:59;2.78;;;1.05;;
16159;SDS011;8185;57.818;15.224;2023-07-31T11:05:40;1.65;;;0.60;;
16159;SDS011;8185;57.818;15.224;2023-07-31T11:08:12;2.60;;;0.90;;
16159;SDS011;8185;57.818;15.224;2023-07-31T11:10:41;1.13;;;0.43;;
16159;SDS011;8185;57.818;15.224;2023-07-31T11:13:09;1.25;;;0.43;;
16159;SDS011;8185;57.818;15.224;2023-07-31T11:15:37;1.73;;;0.80;;
16159;SDS011;8185;57.818;15.224;2023-07-31T11:18:06;1.02;;;0.57;;
16159;SDS011;8185;57.818;15.224;2023-07-31T11:20:36;1.45;;;0.52;;
16159;SDS011;8185;57.818;15.224;2023-07-31T11:23:05;1.52;;;0.50;;
16159;SDS011;8185;57.818;15.224;2023-07-31T11:25:33;1.35;;;0.50;;
16159;SDS011;8185;57.818;15.224;2023-07-31T11:28:08;0.98;;;0.47;;
16159;SDS011;8185;57.818;15.224;2023-07-31T11:30:36;1.38;;;0.60;;
16159;SDS011;8185;57.818;15.224;2023-07-31T11:33:04;4.28;;;0.68;;
16159;SDS011;8185;57.818;15.224;2023-07-31T11:35:34;2.40;;;0.90;;
16159;SDS011;8185;57.818;15.224;2023-07-31T11:38:02;2.65;;;0.70;;
16159;SDS011;8185;57.818;15.224;2023-07-31T11:40:29;2.08;;;0.73;;
16159;SDS011;8185;57.818;15.224;2023-07-31T11:42:57;1.63;;;0.55;;
16159;SDS011;8185;57.818;15.224;2023-07-31T11:45:25;1.80;;;0.77;;
16159;SDS011;8185;57.818;15.224;2023-07-31T11:47:56;1.00;;;0.50;;
16159;SDS011;8185;57.818;15.224;2023-07-31T11:50:25;1.27;;;0.55;;
16159;SDS011;8185;57.818;15.224;2023-07-31T11:52:55;1.05;;;0.55;;
16159;SDS011;8185;57.818;15.224;2023-07-31T11:55:25;1.05;;;0.50;;
16159;SDS011;8185;57.818;15.224;2023-07-31T11:57:54;1.67;;;0.52;;
16159;SDS011;8185;57.818;15.224;2023-07-31T12:00:23;3.15;;;0.85;;
16159;SDS011;8185;57.818;15.224;2023-07-31T12:02:51;1.30;;;0.60;;
16159;SDS011;8185;57.818;15.224;2023-07-31T12:05:19;1.08;;;0.40;;
16159;SDS011;8185;57.818;15.224;2023-07-31T12:07:50;1.38;;;0.63;;
16159;SDS011;8185;57.818;15.224;2023-07-31T12:10:28;2.63;;;0.52;;
16159;SDS011;8185;57.818;15.224;2023-07-31T12:12:56;2.65;;;0.65;;
16159;SDS011;8185;57.818;15.224;2023-07-31T12:15:32;1.77;;;0.63;;
16159;SDS011;8185;57.818;15.224;2023-07-31T12:18:10;1.67;;;0.60;;
16159;SDS011;8185;57.818;15.224;2023-07-31T12:20:42;1.48;;;0.63;;
16159;SDS011;8185;57.818;15.224;2023-07-31T12:23:16;1.23;;;0.40;;
16159;SDS011;8185;57.818;15.224;2023-07-31T12:25:54;0.98;;;0.45;;
16159;SDS011;8185;57.818;15.224;2023-07-31T12:28:27;4.37;;;0.60;;
16159;SDS011;8185;57.818;15.224;2023-07-31T12:30:56;1.93;;;0.60;;
16159;SDS011;8185;57.818;15.224;2023-07-31T12:33:29;1.10;;;0.47;;
16159;SDS011;8185;57.818;15.224;2023-07-31T12:36:00;2.00;;;0.90;;
16159;SDS011;8185;57.818;15.224;2023-07-31T12:38:30;1.37;;;0.73;;
16159;SDS011;8185;57.818;15.224;2023-07-31T12:40:57;2.23;;;0.50;;
16159;SDS011;8185;57.818;15.224;2023-07-31T12:43:24;1.73;;;0.60;;
16159;SDS011;8185;57.818;15.224;2023-07-31T12:45:53;2.77;;;0.50;;
16159;SDS011;8185;57.818;15.224;2023-07-31T12:48:21;1.17;;;0.53;;
16159;SDS011;8185;57.818;15.224;2023-07-31T12:50:48;4.83;;;0.70;;
16159;SDS011;8185;57.818;15.224;2023-07-31T12:53:15;1.50;;;0.80;;
16159;SDS011;8185;57.818;15.224;2023-07-31T12:55:44;3.23;;;1.67;;
16159;SDS011;8185;57.818;15.224;2023-07-31T12:58:12;1.43;;;0.80;;
16159;SDS011;8185;57.818;15.224;2023-07-31T13:00:39;2.30;;;0.80;;
16159;SDS011;8185;57.818;15.224;2023-07-31T13:03:06;5.13;;;0.87;;
16159;SDS011;8185;57.818;15.224;2023-07-31T13:05:33;3.67;;;1.00;;
16159;SDS011;8185;57.818;15.224;2023-07-31T13:08:01;1.80;;;0.73;;
16159;SDS011;8185;57.818;15.224;2023-07-31T13:10:28;1.93;;;1.27;;
16159;SDS011;8185;57.818;15.224;2023-07-31T13:12:56;1.70;;;0.80;;
16159;SDS011;8185;57.818;15.224;2023-07-31T13:15:24;2.43;;;0.60;;
16159;SDS011;8185;57.818;15.224;2023-07-31T13:17:51;6.10;;;0.80;;
16159;SDS011;8185;57.818;15.224;2023-07-31T13:20:18;2.30;;;0.70;;
16159;SDS011;8185;57.818;15.224;2023-07-31T13:22:45;1.90;;;0.70;;
16159;SDS011;8185;57.818;15.224;2023-07-31T13:25:12;3.13;;;0.70;;
16159;SDS011;8185;57.818;15.224;2023-07-31T13:27:40;3.50;;;0.80;;
16159;SDS011;8185;57.818;15.224;2023-07-31T13:30:09;1.73;;;0.70;;
16159;SDS011;8185;57.818;15.224;2023-07-31T13:32:36;1.87;;;0.60;;
16159;SDS011;8185;57.818;15.224;2023-07-31T13:35:04;1.57;;;0.50;;
16159;SDS011;8185;57.818;15.224;2023-07-31T13:37:32;1.40;;;0.40;;
16159;SDS011;8185;57.818;15.224;2023-07-31T13:39:59;3.58;;;0.85;;
16159;SDS011;8185;57.818;15.224;2023-07-31T13:42:26;1.67;;;0.40;;
16159;SDS011;8185;57.818;15.224;2023-07-31T13:44:53;2.85;;;0.73;;
16159;SDS011;8185;57.818;15.224;2023-07-31T13:47:24;1.95;;;0.65;;
16159;SDS011;8185;57.818;15.224;2023-07-31T13:49:51;0.70;;;0.30;;
16159;SDS011;8185;57.818;15.224;2023-07-31T13:52:18;1.20;;;0.40;;
16159;SDS011;8185;57.818;15.224;2023-07-31T13:54:45;1.33;;;0.60;;
16159;SDS011;8185;57.818;15.224;2023-07-31T13:57:12;1.48;;;0.50;;
16159;SDS011;8185;57.818;15.224;2023-07-31T13:59:39;0.90;;;0.40;;
16159;SDS011;8185;57.818;15.224;2023-07-31T14:02:07;0.55;;;0.30;;
16159;SDS011;8185;57.818;15.224;2023-07-31T14:04:35;2.25;;;0.40;;
16159;SDS011;8185;57.818;15.224;2023-07-31T14:07:03;1.83;;;0.63;;
16159;SDS011;8185;57.818;15.224;2023-07-31T14:09:30;1.48;;;0.50;;
16159;SDS011;8185;57.818;15.224;2023-07-31T14:11:57;1.05;;;0.45;;
16159;SDS011;8185;57.818;15.224;2023-07-31T14:14:25;0.88;;;0.40;;
16159;SDS011;8185;57.818;15.224;2023-07-31T14:16:52;1.25;;;0.43;;
16159;SDS011;8185;57.818;15.224;2023-07-31T14:19:19;2.78;;;0.55;;
16159;SDS011;8185;57.818;15.224;2023-07-31T14:21:48;0.47;;;0.32;;
16159;SDS011;8185;57.818;15.224;2023-07-31T14:24:15;2.88;;;0.68;;
16159;SDS011;8185;57.818;15.224;2023-07-31T14:26:42;1.20;;;0.32;;
16159;SDS011;8185;57.818;15.224;2023-07-31T14:29:09;1.70;;;0.60;;
16159;SDS011;8185;57.818;15.224;2023-07-31T14:31:36;1.42;;;0.57;;
16159;SDS011;8185;57.818;15.224;2023-07-31T14:34:03;1.33;;;0.40;;
16159;SDS011;8185;57.818;15.224;2023-07-31T14:36:31;1.35;;;0.55;;
16159;SDS011;8185;57.818;15.224;2023-07-31T14:38:59;1.23;;;0.47;;
16159;SDS011;8185;57.818;15.224;2023-07-31T14:41:26;1.25;;;0.40;;
16159;SDS011;8185;57.818;15.224;2023-07-31T14:43:54;1.13;;;0.40;;
16159;SDS011;8185;57.818;15.224;2023-07-31T14:46:21;1.95;;;0.63;;
16159;SDS011;8185;57.818;15.224;2023-07-31T14:48:48;3.13;;;0.60;;
16159;SDS011;8185;57.818;15.224;2023-07-31T14:51:15;1.73;;;0.57;;
16159;SDS011;8185;57.818;15.224;2023-07-31T14:53:42;2.00;;;0.43;;